createdAt,value
2022-11-08T00:00:51.949Z,1010.8
2022-11-08T00:02:08.139Z,1010.8
2022-11-08T00:03:24.316Z,1010.8
2022-11-08T00:04:40.513Z,1010.8
2022-11-08T00:05:56.630Z,1010.8
2022-11-08T00:07:12.883Z,1010.7
2022-11-08T00:08:28.086Z,1010.8
2022-11-08T00:09:44.271Z,1010.8
2022-11-08T00:11:00.461Z,1010.9
2022-11-08T00:12:16.570Z,1010.8
2022-11-08T00:13:32.761Z,1010.8
2022-11-08T00:14:49.021Z,1010.8
2022-11-08T00:16:05.213Z,1010.8
2022-11-08T00:17:21.328Z,1010.8
2022-11-08T00:18:37.593Z,1010.8
2022-11-08T00:19:53.694Z,1010.8
2022-11-08T00:21:09.892Z,1010.9
2022-11-08T00:22:26.151Z,1010.8
2022-11-08T00:23:42.342Z,1010.9
2022-11-08T00:24:57.000Z,1010.9
2022-11-08T00:26:13.734Z,1010.8
2022-11-08T00:27:29.923Z,1010.8
2022-11-08T00:28:46.019Z,1010.8
2022-11-08T00:30:02.298Z,1010.8
2022-11-08T00:31:18.401Z,1010.8
2022-11-08T00:32:34.662Z,1010.8
2022-11-08T00:33:50.857Z,1010.8
2022-11-08T00:35:07.039Z,1010.8
2022-11-08T00:36:23.156Z,1010.9
2022-11-08T00:37:39.334Z,1010.9
2022-11-08T00:38:55.600Z,1010.9
2022-11-08T00:40:11.718Z,1010.9
2022-11-08T00:41:26.988Z,1010.9
2022-11-08T00:42:43.189Z,1010.9
2022-11-08T00:43:59.367Z,1011
2022-11-08T00:45:15.553Z,1010.9
2022-11-08T00:46:31.735Z,1010.9
2022-11-08T00:47:47.920Z,1010.9
2022-11-08T00:49:04.113Z,1010.9
2022-11-08T00:50:20.231Z,1010.9
2022-11-08T00:51:36.408Z,1010.9
2022-11-08T00:52:52.676Z,1010.9
2022-11-08T00:54:08.867Z,1010.9
2022-11-08T00:55:25.059Z,1010.9
2022-11-08T00:56:41.238Z,1010.9
2022-11-08T00:57:56.450Z,1010.9
2022-11-08T00:59:12.557Z,1011
2022-11-08T01:00:28.814Z,1010.9
2022-11-08T01:01:44.926Z,1010.9
2022-11-08T01:03:01.106Z,1010.9
2022-11-08T01:04:17.383Z,1010.9
2022-11-08T01:05:32.586Z,1010.9
2022-11-08T01:06:48.695Z,1010.9
2022-11-08T01:08:04.964Z,1010.9
2022-11-08T01:09:21.143Z,1011
2022-11-08T01:10:37.350Z,1010.9
2022-11-08T01:11:53.450Z,1011
2022-11-08T01:13:09.712Z,1011
2022-11-08T01:14:25.819Z,1011
2022-11-08T01:15:42.014Z,1010.9
2022-11-08T01:16:58.269Z,1010.9
2022-11-08T01:18:14.462Z,1010.9
2022-11-08T01:19:30.645Z,1010.9
2022-11-08T01:20:46.834Z,1010.9
2022-11-08T01:22:01.967Z,1010.9
2022-11-08T01:23:18.149Z,1010.9
2022-11-08T01:24:34.320Z,1010.9
2022-11-08T01:25:50.603Z,1010.9
2022-11-08T01:27:06.789Z,1010.9
2022-11-08T01:28:22.899Z,1010.8
2022-11-08T01:29:39.079Z,1010.9
2022-11-08T01:30:55.344Z,1010.8
2022-11-08T01:32:11.545Z,1010.8
2022-11-08T01:33:27.640Z,1010.8
2022-11-08T01:34:43.817Z,1010.8
2022-11-08T01:36:00.107Z,1010.8
2022-11-08T01:37:16.193Z,1010.8
2022-11-08T01:38:31.489Z,1010.8
2022-11-08T01:39:47.000Z,1010.8
2022-11-08T01:41:03.783Z,1010.8
2022-11-08T01:42:20.049Z,1010.8
2022-11-08T01:43:36.238Z,1010.8
2022-11-08T01:44:52.427Z,1010.8
2022-11-08T01:46:08.610Z,1010.8
2022-11-08T01:47:24.797Z,1010.7
2022-11-08T01:48:40.995Z,1010.7
2022-11-08T01:49:57.190Z,1010.8
2022-11-08T01:51:13.361Z,1010.7
2022-11-08T01:53:45.641Z,1010.8
2022-11-08T01:55:00.949Z,1010.8
2022-11-08T01:56:17.134Z,1010.8
2022-11-08T01:57:33.317Z,1010.8
2022-11-08T01:58:49.418Z,1010.8
2022-11-08T02:00:05.594Z,1010.8
2022-11-08T02:01:21.882Z,1010.8
2022-11-08T02:02:38.080Z,1010.8
2022-11-08T02:03:54.266Z,1010.8
2022-11-08T02:05:10.356Z,1010.7
2022-11-08T02:06:26.538Z,1010.7
2022-11-08T02:07:42.717Z,1010.8
2022-11-08T02:08:58.999Z,1010.7
2022-11-08T02:10:15.201Z,1010.8
2022-11-08T02:11:30.408Z,1010.8
2022-11-08T02:12:46.479Z,1010.8
2022-11-08T02:14:02.667Z,1010.8
2022-11-08T02:15:18.866Z,1010.8
2022-11-08T02:16:35.140Z,1010.8
2022-11-08T02:17:51.337Z,1010.8
2022-11-08T02:19:07.420Z,1010.8
2022-11-08T02:20:23.717Z,1010.7
2022-11-08T02:21:39.890Z,1010.7
2022-11-08T02:22:55.992Z,1010.7
2022-11-08T02:24:12.265Z,1010.7
2022-11-08T02:25:28.469Z,1010.7
2022-11-08T02:26:44.549Z,1010.7
2022-11-08T02:27:59.856Z,1010.7
2022-11-08T02:29:15.945Z,1010.6
2022-11-08T02:30:32.130Z,1010.6
2022-11-08T02:31:48.320Z,1010.7
2022-11-08T02:33:04.589Z,1010.7
2022-11-08T02:34:20.781Z,1010.7
2022-11-08T02:35:36.873Z,1010.7
2022-11-08T02:36:53.052Z,1010.6
2022-11-08T02:38:09.356Z,1010.6
2022-11-08T02:39:25.431Z,1010.7
2022-11-08T02:40:41.721Z,1010.6
2022-11-08T02:41:57.918Z,1010.7
2022-11-08T02:43:14.090Z,1010.7
2022-11-08T02:44:29.195Z,1010.7
2022-11-08T02:45:45.386Z,1010.8
2022-11-08T02:47:01.664Z,1010.7
2022-11-08T02:48:17.866Z,1010.7
2022-11-08T02:49:34.055Z,1010.7
2022-11-08T02:50:50.123Z,1010.7
2022-11-08T02:52:06.417Z,1010.7
2022-11-08T02:53:22.514Z,1010.7
2022-11-08T02:54:38.798Z,1010.6
2022-11-08T02:55:54.992Z,1010.7
2022-11-08T02:57:11.059Z,1010.6
2022-11-08T02:58:27.255Z,1010.7
2022-11-08T02:59:43.548Z,1010.7
2022-11-08T03:00:58.744Z,1010.8
2022-11-08T03:02:14.929Z,1010.7
2022-11-08T03:03:31.135Z,1010.6
2022-11-08T03:04:47.309Z,1010.7
2022-11-08T03:06:03.497Z,1010.7
2022-11-08T03:07:19.696Z,1010.7
2022-11-08T03:08:35.880Z,1010.6
2022-11-08T03:09:52.066Z,1010.7
2022-11-08T03:11:08.245Z,1010.6
2022-11-08T03:12:24.430Z,1010.7
2022-11-08T03:13:40.622Z,1010.7
2022-11-08T03:14:56.810Z,1010.7
2022-11-08T03:16:13.010Z,1010.7
2022-11-08T03:17:28.205Z,1010.7
2022-11-08T03:18:44.387Z,1010.7
2022-11-08T03:20:00.581Z,1010.8
2022-11-08T03:21:16.760Z,1010.7
2022-11-08T03:22:32.844Z,1010.8
2022-11-08T03:23:49.038Z,1010.7
2022-11-08T03:25:05.322Z,1010.8
2022-11-08T03:26:21.516Z,1010.7
2022-11-08T03:27:37.579Z,1010.7
2022-11-08T03:28:53.898Z,1010.6
2022-11-08T03:30:10.079Z,1010.7
2022-11-08T03:31:26.140Z,1010.7
2022-11-08T03:32:42.459Z,1010.7
2022-11-08T03:33:57.651Z,1010.7
2022-11-08T03:35:13.728Z,1010.6
2022-11-08T03:36:30.037Z,1010.7
2022-11-08T03:37:46.209Z,1010.7
2022-11-08T03:39:02.405Z,1010.7
2022-11-08T03:40:18.593Z,1010.7
2022-11-08T03:41:34.663Z,1010.7
2022-11-08T03:42:50.973Z,1010.7
2022-11-08T03:44:07.040Z,1010.6
2022-11-08T03:45:23.340Z,1010.7
2022-11-08T03:46:39.535Z,1010.7
2022-11-08T03:47:55.607Z,1010.7
2022-11-08T03:49:11.895Z,1010.6
2022-11-08T03:50:27.116Z,1010.6
2022-11-08T03:51:43.303Z,1010.6
2022-11-08T03:52:59.479Z,1010.6
2022-11-08T03:54:15.672Z,1010.5
2022-11-08T03:55:31.864Z,1010.6
2022-11-08T03:56:48.042Z,1010.6
2022-11-08T03:58:04.117Z,1010.5
2022-11-08T03:59:20.298Z,1010.5
2022-11-08T04:00:36.492Z,1010.6
2022-11-08T04:01:52.799Z,1010.6
2022-11-08T04:03:08.977Z,1010.6
2022-11-08T04:04:25.057Z,1010.6
2022-11-08T04:05:41.357Z,1010.6
2022-11-08T04:06:56.434Z,1010.6
2022-11-08T04:08:12.628Z,1010.6
2022-11-08T04:09:28.823Z,1010.6
2022-11-08T04:10:45.117Z,1010.6
2022-11-08T04:12:01.318Z,1010.6
2022-11-08T04:13:17.367Z,1010.6
2022-11-08T04:14:33.693Z,1010.5
2022-11-08T04:15:49.872Z,1010.5
2022-11-08T04:17:06.062Z,1010.6
2022-11-08T04:18:22.248Z,1010.5
2022-11-08T04:19:38.424Z,1010.6
2022-11-08T04:20:54.620Z,1010.5
2022-11-08T04:22:10.689Z,1010.6
2022-11-08T04:23:26.011Z,1010.6
2022-11-08T04:24:42.079Z,1010.6
2022-11-08T04:25:58.254Z,1010.6
2022-11-08T04:27:14.453Z,1010.7
2022-11-08T04:28:30.759Z,1010.7
2022-11-08T04:29:46.951Z,1010.7
2022-11-08T04:31:03.137Z,1010.7
2022-11-08T04:32:19.185Z,1010.7
2022-11-08T04:33:35.513Z,1010.8
2022-11-08T04:34:51.708Z,1010.7
2022-11-08T04:36:07.894Z,1010.8
2022-11-08T04:37:24.069Z,1010.8
2022-11-08T04:38:40.139Z,1010.7
2022-11-08T04:39:55.333Z,1010.6
2022-11-08T04:41:11.656Z,1010.7
2022-11-08T04:42:27.830Z,1010.7
2022-11-08T04:43:44.021Z,1010.7
2022-11-08T04:45:00.217Z,1010.7
2022-11-08T04:46:16.408Z,1010.7
2022-11-08T04:47:32.585Z,1010.7
2022-11-08T04:48:48.767Z,1010.6
2022-11-08T04:50:04.955Z,1010.6
2022-11-08T04:51:21.014Z,1010.6
2022-11-08T04:52:37.337Z,1010.6
2022-11-08T04:53:53.389Z,1010.6
2022-11-08T04:55:09.589Z,1010.7
2022-11-08T04:56:24.920Z,1010.6
2022-11-08T04:57:41.107Z,1010.7
2022-11-08T04:58:57.282Z,1010.6
2022-11-08T05:00:13.470Z,1010.7
2022-11-08T05:01:29.666Z,1010.6
2022-11-08T05:02:45.725Z,1010.6
2022-11-08T05:04:01.914Z,1010.6
2022-11-08T05:05:18.226Z,1010.6
2022-11-08T05:06:34.270Z,1010.6
2022-11-08T05:07:50.593Z,1010.6
2022-11-08T05:09:06.792Z,1010.6
2022-11-08T05:10:22.975Z,1010.6
2022-11-08T05:11:39.158Z,1010.6
2022-11-08T05:12:54.232Z,1010.7
2022-11-08T05:14:10.547Z,1010.6
2022-11-08T05:15:26.747Z,1010.6
2022-11-08T05:16:42.788Z,1010.6
2022-11-08T05:17:59.127Z,1010.6
2022-11-08T05:19:15.307Z,1010.7
2022-11-08T05:20:30.524Z,1010.6
2022-11-08T05:21:46.551Z,1010.7
2022-11-08T05:23:02.748Z,1010.7
2022-11-08T05:24:19.083Z,1010.7
2022-11-08T05:25:35.271Z,1010.7
2022-11-08T05:26:51.449Z,1010.6
2022-11-08T05:28:07.641Z,1010.6
2022-11-08T05:29:23.681Z,1010.6
2022-11-08T05:30:39.879Z,1010.6
2022-11-08T05:31:56.192Z,1010.6
2022-11-08T05:33:12.242Z,1010.7
2022-11-08T05:34:28.584Z,1010.6
2022-11-08T05:35:44.756Z,1010.7
2022-11-08T05:36:59.973Z,1010.7
2022-11-08T05:38:16.004Z,1010.7
2022-11-08T05:39:32.334Z,1010.7
2022-11-08T05:40:48.521Z,1010.6
2022-11-08T05:42:04.573Z,1010.7
2022-11-08T05:43:20.892Z,1010.7
2022-11-08T05:44:36.941Z,1010.7
2022-11-08T05:45:53.280Z,1010.7
2022-11-08T05:47:09.454Z,1010.7
2022-11-08T05:48:25.656Z,1010.7
2022-11-08T05:49:41.830Z,1010.6
2022-11-08T05:50:57.871Z,1010.7
2022-11-08T05:52:14.204Z,1010.7
2022-11-08T05:53:29.411Z,1010.6
2022-11-08T05:54:45.463Z,1010.6
2022-11-08T05:56:01.792Z,1010.6
2022-11-08T05:57:17.982Z,1010.6
2022-11-08T05:58:34.171Z,1010.6
2022-11-08T05:59:50.347Z,1010.6
2022-11-08T06:01:06.533Z,1010.6
2022-11-08T06:02:22.730Z,1010.7
2022-11-08T06:03:38.758Z,1010.7
2022-11-08T06:04:55.095Z,1010.7
2022-11-08T06:06:11.302Z,1010.7
2022-11-08T06:07:27.332Z,1010.7
2022-11-08T06:08:43.673Z,1010.7
2022-11-08T06:09:58.863Z,1010.6
2022-11-08T06:11:14.907Z,1010.7
2022-11-08T06:12:31.246Z,1010.7
2022-11-08T06:13:47.000Z,1010.7
2022-11-08T06:15:03.462Z,1010.7
2022-11-08T06:16:19.808Z,1010.7
2022-11-08T06:17:35.989Z,1010.7
2022-11-08T06:18:52.178Z,1010.8
2022-11-08T06:20:08.372Z,1010.7
2022-11-08T06:21:24.569Z,1010.8
2022-11-08T06:22:40.742Z,1010.7
2022-11-08T06:23:56.784Z,1010.8
2022-11-08T06:25:12.979Z,1010.8
2022-11-08T06:26:28.326Z,1010.8
2022-11-08T06:27:44.368Z,1010.7
2022-11-08T06:29:00.712Z,1010.8
2022-11-08T06:30:16.746Z,1010.8
2022-11-08T06:31:33.097Z,1010.8
2022-11-08T06:32:49.125Z,1010.8
2022-11-08T06:34:05.313Z,1010.8
2022-11-08T06:35:21.500Z,1010.9
2022-11-08T06:36:37.688Z,1010.9
2022-11-08T06:37:53.884Z,1010.8
2022-11-08T06:39:10.057Z,1010.8
2022-11-08T06:40:26.262Z,1010.8
2022-11-08T06:41:42.448Z,1010.8
2022-11-08T06:42:57.800Z,1010.8
2022-11-08T06:44:13.990Z,1010.8
2022-11-08T06:45:30.024Z,1010.8
2022-11-08T06:46:46.365Z,1010.8
2022-11-08T06:48:02.556Z,1010.8
2022-11-08T06:49:18.589Z,1010.8
2022-11-08T06:50:34.935Z,1010.8
2022-11-08T06:51:50.959Z,1010.8
2022-11-08T06:53:07.322Z,1010.8
2022-11-08T06:54:23.498Z,1010.9
2022-11-08T06:55:39.703Z,1010.9
2022-11-08T06:56:55.710Z,1010.9
2022-11-08T06:58:11.910Z,1010.9
2022-11-08T06:59:27.268Z,1010.9
2022-11-08T07:00:43.465Z,1010.9
2022-11-08T07:01:59.493Z,1010.9
2022-11-08T07:03:15.842Z,1010.9
2022-11-08T07:04:31.874Z,1010.9
2022-11-08T07:05:48.052Z,1010.9
2022-11-08T07:07:04.400Z,1010.9
2022-11-08T07:08:20.591Z,1010.8
2022-11-08T07:09:36.786Z,1010.9
2022-11-08T07:10:52.811Z,1010.9
2022-11-08T07:12:09.008Z,1010.9
2022-11-08T07:13:25.178Z,1010.9
2022-11-08T07:14:41.553Z,1010.9
2022-11-08T07:15:56.587Z,1010.9
2022-11-08T07:17:12.761Z,1010.9
2022-11-08T07:18:29.132Z,1010.9
2022-11-08T07:19:45.147Z,1010.8
2022-11-08T07:21:01.511Z,1010.8
2022-11-08T07:22:17.692Z,1010.8
2022-11-08T07:23:33.723Z,1010.8
2022-11-08T07:24:50.077Z,1010.9
2022-11-08T07:26:06.256Z,1010.9
2022-11-08T07:27:22.287Z,1010.8
2022-11-08T07:28:38.466Z,1010.8
2022-11-08T07:29:54.829Z,1010.8
2022-11-08T07:31:11.007Z,1010.8
2022-11-08T07:32:26.044Z,1010.8
2022-11-08T07:33:42.404Z,1010.8
2022-11-08T07:34:58.603Z,1010.9
2022-11-08T07:36:14.625Z,1010.8
2022-11-08T07:37:30.977Z,1010.8
2022-11-08T07:38:47.176Z,1010.8
2022-11-08T07:40:03.357Z,1010.8
2022-11-08T07:41:19.547Z,1010.8
2022-11-08T07:42:35.738Z,1010.9
2022-11-08T07:43:51.924Z,1010.9
2022-11-08T07:45:08.118Z,1010.9
2022-11-08T07:46:24.128Z,1010.9
2022-11-08T07:47:40.480Z,1010.9
2022-11-08T07:48:55.519Z,1010.8
2022-11-08T07:50:11.707Z,1010.9
2022-11-08T07:51:28.079Z,1010.9
2022-11-08T07:52:44.256Z,1010.9
2022-11-08T07:54:00.000Z,1010.9
2022-11-08T07:55:16.648Z,1010.8
2022-11-08T07:56:32.835Z,1010.8
2022-11-08T07:57:48.830Z,1010.9
2022-11-08T08:00:21.399Z,1010.8
2022-11-08T08:01:37.585Z,1010.8
2022-11-08T08:02:53.772Z,1010.8
2022-11-08T08:04:09.966Z,1010.8
2022-11-08T08:05:24.990Z,1010.8
2022-11-08T08:06:41.365Z,1010.8
2022-11-08T08:07:57.537Z,1010.7
2022-11-08T08:09:13.731Z,1010.7
2022-11-08T08:10:29.744Z,1010.7
2022-11-08T08:11:45.941Z,1010.8
2022-11-08T08:13:02.111Z,1010.7
2022-11-08T08:14:18.315Z,1010.7
2022-11-08T08:15:34.685Z,1010.6
2022-11-08T08:16:50.679Z,1010.6
2022-11-08T08:18:07.050Z,1010.6
2022-11-08T08:19:23.236Z,1010.5
2022-11-08T08:20:39.259Z,1010.6
2022-11-08T08:21:54.633Z,1010.6
2022-11-08T08:23:10.640Z,1010.6
2022-11-08T08:24:26.838Z,1010.5
2022-11-08T08:25:43.212Z,1010.6
2022-11-08T08:26:59.404Z,1010.5
2022-11-08T08:28:15.579Z,1010.5
2022-11-08T08:29:31.596Z,1010.5
2022-11-08T08:30:47.960Z,1010.5
2022-11-08T08:32:04.144Z,1010.5
2022-11-08T08:33:20.159Z,1010.5
2022-11-08T08:34:36.538Z,1010.5
2022-11-08T08:35:52.528Z,1010.5
2022-11-08T08:37:08.728Z,1010.5
2022-11-08T08:38:24.116Z,1010.5
2022-11-08T08:39:40.128Z,1010.4
2022-11-08T08:40:56.500Z,1010.4
2022-11-08T08:42:12.672Z,1010.4
2022-11-08T08:43:28.692Z,1010.4
2022-11-08T08:44:45.054Z,1010.5
2022-11-08T08:46:01.054Z,1010.4
2022-11-08T08:47:17.255Z,1010.4
2022-11-08T08:48:33.633Z,1010.4
2022-11-08T08:49:49.822Z,1010.4
2022-11-08T08:51:06.005Z,1010.4
2022-11-08T08:52:22.015Z,1010.4
2022-11-08T08:53:38.386Z,1010.3
2022-11-08T08:54:53.590Z,1010.3
2022-11-08T08:56:09.592Z,1010.4
2022-11-08T08:57:25.967Z,1010.4
2022-11-08T08:58:41.958Z,1010.4
2022-11-08T08:59:58.157Z,1010.3
2022-11-08T09:01:14.544Z,1010.4
2022-11-08T09:02:30.715Z,1010.3
2022-11-08T09:03:46.734Z,1010.3
2022-11-08T09:05:03.102Z,1010.4
2022-11-08T09:06:19.109Z,1010.3
2022-11-08T09:07:35.474Z,1010.3
2022-11-08T09:08:51.679Z,1010.3
2022-11-08T09:10:07.855Z,1010.4
2022-11-08T09:11:22.882Z,1010.4
2022-11-08T09:12:39.248Z,1010.4
2022-11-08T09:13:55.248Z,1010.4
2022-11-08T09:15:11.626Z,1010.4
2022-11-08T09:16:27.832Z,1010.4
2022-11-08T09:17:43.816Z,1010.3
2022-11-08T09:19:00.211Z,1010.4
2022-11-08T09:20:16.395Z,1010.3
2022-11-08T09:21:32.575Z,1010.4
2022-11-08T09:22:48.770Z,1010.4
2022-11-08T09:24:04.956Z,1010.3
2022-11-08T09:25:21.140Z,1010.4
2022-11-08T09:26:37.332Z,1010.4
2022-11-08T09:27:52.538Z,1010.4
2022-11-08T09:29:08.542Z,1010.4
2022-11-08T09:30:24.716Z,1010.4
2022-11-08T09:31:41.104Z,1010.4
2022-11-08T09:32:57.302Z,1010.4
2022-11-08T09:34:13.497Z,1010.4
2022-11-08T09:35:28.710Z,1010.4
2022-11-08T09:36:44.691Z,1010.4
2022-11-08T09:38:00.875Z,1010.4
2022-11-08T09:39:17.064Z,1010.4
2022-11-08T09:40:33.453Z,1010.4
2022-11-08T09:41:49.440Z,1010.4
2022-11-08T09:43:05.827Z,1010.3
2022-11-08T09:44:21.818Z,1010.3
2022-11-08T09:45:38.020Z,1010.3
2022-11-08T09:46:54.211Z,1010.2
2022-11-08T09:48:10.584Z,1010.3
2022-11-08T09:49:26.789Z,1010.3
2022-11-08T09:50:42.967Z,1010.2
2022-11-08T09:51:58.168Z,1010.2
2022-11-08T09:53:14.369Z,1010.2
2022-11-08T09:54:30.557Z,1010.2
2022-11-08T09:55:46.541Z,1010.2
2022-11-08T09:57:02.931Z,1010.2
2022-11-08T09:58:19.127Z,1010.2
2022-11-08T09:59:35.311Z,1010.2
2022-11-08T10:00:51.500Z,1010.2
2022-11-08T10:02:07.698Z,1010.2
2022-11-08T10:03:23.875Z,1010.2
2022-11-08T10:04:40.065Z,1010.2
2022-11-08T10:05:56.255Z,1010.2
2022-11-08T10:07:12.236Z,1010.1
2022-11-08T10:08:27.456Z,1010.2
2022-11-08T10:09:43.847Z,1010.2
2022-11-08T10:10:59.818Z,1010.2
2022-11-08T10:12:16.013Z,1010.1
2022-11-08T10:13:32.413Z,1010
2022-11-08T10:14:48.390Z,1010
2022-11-08T10:16:04.797Z,1010
2022-11-08T10:17:20.763Z,1010
2022-11-08T10:18:37.161Z,1010
2022-11-08T10:19:53.354Z,1010
2022-11-08T10:21:09.346Z,1010
2022-11-08T10:22:25.532Z,1010
2022-11-08T10:23:41.718Z,1010
2022-11-08T10:24:57.119Z,1010
2022-11-08T10:26:13.310Z,1010
2022-11-08T10:27:29.297Z,1010
2022-11-08T10:28:45.487Z,1009.9
2022-11-08T10:30:01.684Z,1009.9
2022-11-08T10:31:18.071Z,1009.9
2022-11-08T10:32:34.259Z,1009.9
2022-11-08T10:33:50.242Z,1010
2022-11-08T10:35:06.427Z,1010
2022-11-08T10:36:22.824Z,1009.9
2022-11-08T10:37:39.013Z,1009.9
2022-11-08T10:38:55.210Z,1009.9
2022-11-08T10:40:11.185Z,1009.8
2022-11-08T10:41:26.389Z,1009.8
2022-11-08T10:42:42.572Z,1009.8
2022-11-08T10:43:58.981Z,1009.8
2022-11-08T10:45:14.964Z,1009.8
2022-11-08T10:46:31.150Z,1009.8
2022-11-08T10:47:47.549Z,1009.8
2022-11-08T10:49:03.531Z,1009.8
2022-11-08T10:50:19.720Z,1009.8
2022-11-08T10:51:36.122Z,1009.8
2022-11-08T10:52:52.081Z,1009.7
2022-11-08T10:54:08.498Z,1009.8
2022-11-08T10:55:24.681Z,1009.7
2022-11-08T10:56:40.875Z,1009.7
2022-11-08T10:57:56.069Z,1009.8
2022-11-08T10:59:12.054Z,1009.7
2022-11-08T11:00:28.229Z,1009.7
2022-11-08T11:01:44.633Z,1009.7
2022-11-08T11:03:00.828Z,1009.7
2022-11-08T11:04:17.029Z,1009.7
2022-11-08T11:05:33.217Z,1009.7
2022-11-08T11:06:49.397Z,1009.6
2022-11-08T11:08:05.373Z,1009.6
2022-11-08T11:09:21.556Z,1009.7
2022-11-08T11:10:37.757Z,1009.6
2022-11-08T11:11:53.936Z,1009.6
2022-11-08T11:13:10.336Z,1009.6
2022-11-08T11:14:25.551Z,1009.6
2022-11-08T11:15:41.523Z,1009.6
2022-11-08T11:16:57.936Z,1009.6
2022-11-08T11:18:13.903Z,1009.6
2022-11-08T11:19:30.314Z,1009.6
2022-11-08T11:20:46.498Z,1009.6
2022-11-08T11:22:02.000Z,1009.5
2022-11-08T11:23:18.877Z,1009.5
2022-11-08T11:24:34.842Z,1009.6
2022-11-08T11:25:51.253Z,1009.5
2022-11-08T11:27:07.208Z,1009.5
2022-11-08T11:28:23.408Z,1009.5
2022-11-08T11:29:39.600Z,1009.5
2022-11-08T11:30:54.805Z,1009.6
2022-11-08T11:32:11.221Z,1009.5
2022-11-08T11:33:27.395Z,1009.5
2022-11-08T11:34:43.596Z,1009.4
2022-11-08T11:35:59.775Z,1009.4
2022-11-08T11:37:15.976Z,1009.3
2022-11-08T11:38:31.924Z,1009.3
2022-11-08T11:39:48.345Z,1009.3
2022-11-08T11:41:04.541Z,1009.3
2022-11-08T11:42:20.502Z,1009.3
2022-11-08T11:43:36.913Z,1009.3
2022-11-08T11:44:53.099Z,1009.3
2022-11-08T11:46:09.074Z,1009.3
2022-11-08T11:47:24.496Z,1009.2
2022-11-08T11:48:40.451Z,1009.2
2022-11-08T11:49:56.645Z,1009.3
2022-11-08T11:51:13.064Z,1009.2
2022-11-08T11:52:29.253Z,1009.1
2022-11-08T11:53:45.215Z,1009.1
2022-11-08T11:55:01.626Z,1009.1
2022-11-08T11:56:17.824Z,1009.1
2022-11-08T11:57:33.789Z,1009
2022-11-08T11:58:50.195Z,1009.1
2022-11-08T12:00:06.392Z,1009.1
2022-11-08T12:01:22.342Z,1009.1
2022-11-08T12:02:38.541Z,1009.1
2022-11-08T12:03:53.730Z,1009.1
2022-11-08T12:05:10.168Z,1009.1
2022-11-08T12:06:26.359Z,1009.1
2022-11-08T12:07:42.547Z,1009
2022-11-08T12:08:58.497Z,1009
2022-11-08T12:10:14.920Z,1009
2022-11-08T12:11:31.111Z,1009
2022-11-08T12:12:47.069Z,1009
2022-11-08T12:14:03.485Z,1009
2022-11-08T12:15:19.436Z,1009
2022-11-08T12:16:35.864Z,1009
2022-11-08T12:17:52.058Z,1009
2022-11-08T12:19:08.017Z,1008.9
2022-11-08T12:20:23.443Z,1008.9
2022-11-08T12:21:39.631Z,1008.9
2022-11-08T12:22:55.588Z,1008.8
2022-11-08T12:24:12.003Z,1008.8
2022-11-08T12:25:28.195Z,1008.8
2022-11-08T12:26:44.399Z,1008.8
2022-11-08T12:28:00.333Z,1008.7
2022-11-08T12:29:16.528Z,1008.7
2022-11-08T12:30:32.957Z,1008.7
2022-11-08T12:31:49.146Z,1008.8
2022-11-08T12:33:05.331Z,1008.7
2022-11-08T12:34:21.524Z,1008.7
2022-11-08T12:35:37.482Z,1008.7
2022-11-08T12:36:52.672Z,1008.6
2022-11-08T12:38:09.102Z,1008.7
2022-11-08T12:39:25.050Z,1008.7
2022-11-08T12:40:41.249Z,1008.7
2022-11-08T12:41:57.685Z,1008.7
2022-11-08T12:43:13.859Z,1008.6
2022-11-08T12:44:30.062Z,1008.6
2022-11-08T12:45:46.237Z,1008.7
2022-11-08T12:47:02.192Z,1008.6
2022-11-08T12:48:18.386Z,1008.6
2022-11-08T12:49:34.813Z,1008.6
2022-11-08T12:50:51.012Z,1008.7
2022-11-08T12:52:07.182Z,1008.6
2022-11-08T12:53:22.384Z,1008.7
2022-11-08T12:54:38.334Z,1008.6
2022-11-08T12:55:54.534Z,1008.6
2022-11-08T12:57:10.729Z,1008.6
2022-11-08T12:58:27.150Z,1008.6
2022-11-08T12:59:43.336Z,1008.5
2022-11-08T13:00:59.516Z,1008.7
2022-11-08T13:02:15.715Z,1008.6
2022-11-08T13:03:31.910Z,1008.6
2022-11-08T13:04:48.091Z,1008.6
2022-11-08T13:06:04.045Z,1008.6
2022-11-08T13:07:20.476Z,1008.6
2022-11-08T13:08:36.658Z,1008.5
2022-11-08T13:09:51.615Z,1008.5
2022-11-08T13:11:08.052Z,1008.5
2022-11-08T13:12:23.990Z,1008.5
2022-11-08T13:13:40.436Z,1008.4
2022-11-08T13:14:56.373Z,1008.4
2022-11-08T13:16:12.562Z,1008.4
2022-11-08T13:17:29.002Z,1008.4
2022-11-08T13:18:44.937Z,1008.4
2022-11-08T13:20:01.371Z,1008.4
2022-11-08T13:21:17.315Z,1008.3
2022-11-08T13:22:33.510Z,1008.3
2022-11-08T13:23:49.687Z,1008.3
2022-11-08T13:25:05.884Z,1008.3
2022-11-08T13:26:21.092Z,1008.3
2022-11-08T13:27:37.479Z,1008.3
2022-11-08T13:28:53.678Z,1008.3
2022-11-08T13:30:09.661Z,1008.2
2022-11-08T13:31:25.842Z,1008.3
2022-11-08T13:32:42.234Z,1008.2
2022-11-08T13:33:58.421Z,1008
2022-11-08T13:35:14.606Z,1008.1
2022-11-08T13:36:30.806Z,1008
2022-11-08T13:37:46.981Z,1008
2022-11-08T13:39:03.188Z,1008
2022-11-08T13:40:19.363Z,1008
2022-11-08T13:41:35.555Z,1008
2022-11-08T13:42:50.754Z,1008.1
2022-11-08T13:44:06.747Z,1008.1
2022-11-08T13:45:22.933Z,1008.1
2022-11-08T13:46:39.334Z,1008.1
2022-11-08T13:47:55.324Z,1008.1
2022-11-08T13:49:11.715Z,1008.1
2022-11-08T13:50:26.914Z,1008.1
2022-11-08T13:51:43.116Z,1008.1
2022-11-08T13:52:59.291Z,1008.1
2022-11-08T13:54:15.494Z,1008.1
2022-11-08T13:55:31.676Z,1008
2022-11-08T13:56:47.872Z,1008.1
2022-11-08T13:58:03.845Z,1008.1
2022-11-08T13:59:20.027Z,1008.2
2022-11-08T14:00:36.217Z,1008.1
2022-11-08T14:01:52.420Z,1008.2
2022-11-08T14:03:08.596Z,1008.2
2022-11-08T14:04:25.009Z,1008.2
2022-11-08T14:05:41.188Z,1008.3
2022-11-08T14:06:56.403Z,1008.3
2022-11-08T14:08:12.378Z,1008.3
2022-11-08T14:09:28.573Z,1008.3
2022-11-08T14:10:44.760Z,1008.3
2022-11-08T14:12:01.147Z,1008.3
2022-11-08T14:13:17.333Z,1008.3
2022-11-08T14:14:33.531Z,1008.3
2022-11-08T14:15:49.707Z,1008.3
2022-11-08T14:17:05.903Z,1008.2
2022-11-08T14:18:21.883Z,1008.2
2022-11-08T14:19:38.289Z,1008.2
2022-11-08T14:20:54.471Z,1008.2
2022-11-08T14:22:10.653Z,1008.1
2022-11-08T14:23:25.878Z,1008.1
2022-11-08T14:24:42.049Z,1008.1
2022-11-08T14:25:58.038Z,1008
2022-11-08T14:27:14.430Z,1008
2022-11-08T14:28:30.416Z,1007.9
2022-11-08T14:29:46.817Z,1008
2022-11-08T14:31:03.009Z,1008
2022-11-08T14:32:18.984Z,1007.9
2022-11-08T14:33:35.164Z,1007.9
2022-11-08T14:34:51.354Z,1008
2022-11-08T14:36:07.761Z,1008
2022-11-08T14:37:23.938Z,1008
2022-11-08T14:38:39.926Z,1007.9
2022-11-08T14:39:55.337Z,1007.9
2022-11-08T14:41:11.315Z,1007.9
2022-11-08T14:42:27.709Z,1007.9
2022-11-08T14:43:43.915Z,1008
2022-11-08T14:45:00.090Z,1007.9
2022-11-08T14:46:16.281Z,1008
2022-11-08T14:47:32.252Z,1008
2022-11-08T14:48:48.451Z,1007.9
2022-11-08T14:50:04.846Z,1007.9
2022-11-08T14:51:21.040Z,1007.9
2022-11-08T14:52:37.238Z,1007.9
2022-11-08T14:53:53.419Z,1007.9
2022-11-08T14:55:09.608Z,1007.9
2022-11-08T14:56:24.819Z,1007.9
2022-11-08T14:57:40.997Z,1007.9
2022-11-08T14:58:57.192Z,1007.9
2022-11-08T15:00:13.167Z,1007.9
2022-11-08T15:01:29.561Z,1007.8
2022-11-08T15:02:45.762Z,1007.8
2022-11-08T15:04:01.732Z,1007.8
2022-11-08T15:05:17.907Z,1007.8
2022-11-08T15:06:34.337Z,1007.8
2022-11-08T15:07:50.523Z,1007.8
2022-11-08T15:09:06.473Z,1007.8
2022-11-08T15:10:22.665Z,1007.9
2022-11-08T15:11:38.860Z,1007.9
2022-11-08T15:12:54.057Z,1007.8
2022-11-08T15:14:09.952Z,1007.9
2022-11-08T15:15:26.151Z,1007.8
2022-11-08T15:16:42.624Z,1007.8
2022-11-08T15:17:58.523Z,1007.9
2022-11-08T15:19:15.002Z,1007.8
2022-11-08T15:20:30.911Z,1007.7
2022-11-08T15:21:47.102Z,1007.8
2022-11-08T15:23:03.284Z,1007.7
2022-11-08T15:24:19.477Z,1007.8
2022-11-08T15:25:35.949Z,1007.7
2022-11-08T15:26:52.148Z,1007.7
2022-11-08T15:28:08.043Z,1007.6
2022-11-08T15:29:23.248Z,1007.6
2022-11-08T15:30:39.727Z,1007.6
2022-11-08T15:31:55.632Z,1007.6
2022-11-08T15:33:11.000Z,1007.6
2022-11-08T15:34:28.284Z,1007.6
2022-11-08T15:35:44.185Z,1007.6
2022-11-08T15:37:00.379Z,1007.6
2022-11-08T15:38:16.850Z,1007.6
2022-11-08T15:39:32.751Z,1007.6
2022-11-08T15:40:48.935Z,1007.6
2022-11-08T15:42:05.417Z,1007.6
2022-11-08T15:43:21.326Z,1007.6
2022-11-08T15:44:37.794Z,1007.6
2022-11-08T15:45:52.707Z,1007.6
2022-11-08T15:47:08.914Z,1007.6
2022-11-08T15:48:25.376Z,1007.6
2022-11-08T15:49:41.569Z,1007.5
2022-11-08T15:50:57.749Z,1007.5
2022-11-08T15:52:13.654Z,1007.5
2022-11-08T15:53:30.121Z,1007.6
2022-11-08T15:54:46.035Z,1007.5
2022-11-08T15:56:02.495Z,1007.5